sensor_id;sensor_type;location;lat;lon;timestamp;P1;durP1;ratioP1;P2;durP2;ratioP2
67193;SDS011;54121;53.508;49.422;2022-12-04T00:01:11;18.25;;;5.97;;
67193;SDS011;54121;53.508;49.422;2022-12-04T00:03:40;11.88;;;4.72;;
67193;SDS011;54121;53.508;49.422;2022-12-04T00:06:11;9.32;;;5.22;;
67193;SDS011;54121;53.508;49.422;2022-12-04T00:08:41;20.33;;;4.88;;
67193;SDS011;54121;53.508;49.422;2022-12-04T00:11:08;11.68;;;4.50;;
67193;SDS011;54121;53.508;49.422;2022-12-04T00:13:36;17.92;;;4.97;;
67193;SDS011;54121;53.508;49.422;2022-12-04T00:16:07;17.85;;;5.88;;
67193;SDS011;54121;53.508;49.422;2022-12-04T00:18:36;16.70;;;5.50;;
67193;SDS011;54121;53.508;49.422;2022-12-04T00:21:06;14.10;;;5.40;;
67193;SDS011;54121;53.508;49.422;2022-12-04T00:23:35;13.38;;;5.15;;
67193;SDS011;54121;53.508;49.422;2022-12-04T00:26:03;10.10;;;4.40;;
67193;SDS011;54121;53.508;49.422;2022-12-04T00:28:50;12.48;;;5.15;;
67193;SDS011;54121;53.508;49.422;2022-12-04T00:31:21;20.25;;;4.63;;
67193;SDS011;54121;53.508;49.422;2022-12-04T00:33:50;12.48;;;4.00;;
67193;SDS011;54121;53.508;49.422;2022-12-04T00:36:17;13.98;;;5.03;;
67193;SDS011;54121;53.508;49.422;2022-12-04T00:38:45;16.65;;;5.10;;
67193;SDS011;54121;53.508;49.422;2022-12-04T00:41:13;15.30;;;5.28;;
67193;SDS011;54121;53.508;49.422;2022-12-04T00:43:40;13.48;;;6.00;;
67193;SDS011;54121;53.508;49.422;2022-12-04T00:46:08;20.17;;;8.65;;
67193;SDS011;54121;53.508;49.422;2022-12-04T00:48:34;49.95;;;16.02;;
67193;SDS011;54121;53.508;49.422;2022-12-04T00:51:05;16.48;;;6.10;;
67193;SDS011;54121;53.508;49.422;2022-12-04T00:53:33;22.58;;;5.43;;
67193;SDS011;54121;53.508;49.422;2022-12-04T00:56:04;15.57;;;5.30;;
67193;SDS011;54121;53.508;49.422;2022-12-04T00:58:32;11.63;;;5.47;;
67193;SDS011;54121;53.508;49.422;2022-12-04T01:01:03;13.75;;;4.90;;
67193;SDS011;54121;53.508;49.422;2022-12-04T01:03:32;16.27;;;5.22;;
67193;SDS011;54121;53.508;49.422;2022-12-04T01:05:59;15.48;;;5.40;;
67193;SDS011;54121;53.508;49.422;2022-12-04T01:08:28;10.25;;;4.72;;
67193;SDS011;54121;53.508;49.422;2022-12-04T01:10:55;11.88;;;4.43;;
67193;SDS011;54121;53.508;49.422;2022-12-04T01:13:21;12.43;;;5.13;;
67193;SDS011;54121;53.508;49.422;2022-12-04T01:15:48;12.48;;;5.43;;
67193;SDS011;54121;53.508;49.422;2022-12-04T01:18:15;14.50;;;4.78;;
67193;SDS011;54121;53.508;49.422;2022-12-04T01:20:46;13.02;;;5.75;;
67193;SDS011;54121;53.508;49.422;2022-12-04T01:23:14;13.07;;;5.60;;
67193;SDS011;54121;53.508;49.422;2022-12-04T01:25:49;14.20;;;5.35;;
67193;SDS011;54121;53.508;49.422;2022-12-04T01:28:17;10.95;;;4.88;;
67193;SDS011;54121;53.508;49.422;2022-12-04T01:30:44;9.85;;;4.70;;
67193;SDS011;54121;53.508;49.422;2022-12-04T01:33:10;11.77;;;5.50;;
67193;SDS011;54121;53.508;49.422;2022-12-04T01:35:37;8.95;;;4.78;;
67193;SDS011;54121;53.508;49.422;2022-12-04T01:38:03;19.33;;;5.22;;
67193;SDS011;54121;53.508;49.422;2022-12-04T01:40:30;14.13;;;5.13;;
67193;SDS011;54121;53.508;49.422;2022-12-04T01:42:58;12.60;;;5.30;;
67193;SDS011;54121;53.508;49.422;2022-12-04T01:45:38;10.75;;;4.80;;
67193;SDS011;54121;53.508;49.422;2022-12-04T01:50:58;11.05;;;4.60;;
67193;SDS011;54121;53.508;49.422;2022-12-04T01:53:31;16.05;;;6.30;;
67193;SDS011;54121;53.508;49.422;2022-12-04T01:56:00;14.77;;;4.75;;
67193;SDS011;54121;53.508;49.422;2022-12-04T01:58:30;16.50;;;6.57;;
67193;SDS011;54121;53.508;49.422;2022-12-04T02:00:59;14.75;;;6.28;;
67193;SDS011;54121;53.508;49.422;2022-12-04T02:03:28;15.88;;;5.13;;
67193;SDS011;54121;53.508;49.422;2022-12-04T02:05:55;18.45;;;6.03;;
67193;SDS011;54121;53.508;49.422;2022-12-04T02:08:22;16.38;;;5.85;;
67193;SDS011;54121;53.508;49.422;2022-12-04T02:13:29;20.35;;;5.78;;
67193;SDS011;54121;53.508;49.422;2022-12-04T02:26:47;30.27;;;9.80;;
67193;SDS011;54121;53.508;49.422;2022-12-04T02:32:17;15.07;;;6.07;;
67193;SDS011;54121;53.508;49.422;2022-12-04T02:37:30;19.35;;;7.82;;
67193;SDS011;54121;53.508;49.422;2022-12-04T02:42:55;16.58;;;6.40;;
67193;SDS011;54121;53.508;49.422;2022-12-04T02:45:34;26.95;;;9.13;;
67193;SDS011;54121;53.508;49.422;2022-12-04T02:48:05;16.55;;;6.03;;
67193;SDS011;54121;53.508;49.422;2022-12-04T02:50:34;23.40;;;7.80;;
67193;SDS011;54121;53.508;49.422;2022-12-04T02:53:17;21.10;;;7.40;;
67193;SDS011;54121;53.508;49.422;2022-12-04T02:55:52;19.65;;;6.80;;
67193;SDS011;54121;53.508;49.422;2022-12-04T02:58:27;20.58;;;7.53;;
67193;SDS011;54121;53.508;49.422;2022-12-04T03:01:19;15.20;;;7.00;;
67193;SDS011;54121;53.508;49.422;2022-12-04T03:06:50;24.95;;;9.18;;
67193;SDS011;54121;53.508;49.422;2022-12-04T03:09:23;19.27;;;8.10;;
67193;SDS011;54121;53.508;49.422;2022-12-04T03:12:15;30.10;;;8.50;;
67193;SDS011;54121;53.508;49.422;2022-12-04T03:15:07;18.80;;;7.47;;
67193;SDS011;54121;53.508;49.422;2022-12-04T03:18:03;27.35;;;7.18;;
67193;SDS011;54121;53.508;49.422;2022-12-04T03:20:36;21.63;;;8.68;;
67193;SDS011;54121;53.508;49.422;2022-12-04T03:23:14;25.02;;;7.97;;
67193;SDS011;54121;53.508;49.422;2022-12-04T03:25:56;23.80;;;7.43;;
67193;SDS011;54121;53.508;49.422;2022-12-04T03:31:13;29.20;;;10.52;;
67193;SDS011;54121;53.508;49.422;2022-12-04T03:33:44;30.52;;;11.05;;
67193;SDS011;54121;53.508;49.422;2022-12-04T03:36:13;18.05;;;7.50;;
67193;SDS011;54121;53.508;49.422;2022-12-04T03:44:37;33.05;;;10.55;;
67193;SDS011;54121;53.508;49.422;2022-12-04T03:47:05;39.70;;;11.75;;
67193;SDS011;54121;53.508;49.422;2022-12-04T03:49:54;30.58;;;12.23;;
67193;SDS011;54121;53.508;49.422;2022-12-04T03:55:31;44.90;;;13.75;;
67193;SDS011;54121;53.508;49.422;2022-12-04T03:58:08;40.58;;;13.70;;
67193;SDS011;54121;53.508;49.422;2022-12-04T04:00:40;41.08;;;14.25;;
67193;SDS011;54121;53.508;49.422;2022-12-04T04:03:10;48.33;;;16.20;;
67193;SDS011;54121;53.508;49.422;2022-12-04T04:05:48;41.83;;;14.88;;
67193;SDS011;54121;53.508;49.422;2022-12-04T04:08:18;56.35;;;17.38;;
67193;SDS011;54121;53.508;49.422;2022-12-04T04:11:10;68.00;;;18.85;;
67193;SDS011;54121;53.508;49.422;2022-12-04T04:13:50;54.17;;;18.10;;
67193;SDS011;54121;53.508;49.422;2022-12-04T04:16:42;63.53;;;19.42;;
67193;SDS011;54121;53.508;49.422;2022-12-04T04:19:31;55.05;;;17.75;;
67193;SDS011;54121;53.508;49.422;2022-12-04T04:22:18;58.28;;;16.98;;
67193;SDS011;54121;53.508;49.422;2022-12-04T04:25:39;36.97;;;15.63;;
67193;SDS011;54121;53.508;49.422;2022-12-04T04:28:01;40.05;;;15.60;;
67193;SDS011;54121;53.508;49.422;2022-12-04T04:30:27;46.22;;;15.18;;
67193;SDS011;54121;53.508;49.422;2022-12-04T04:40:53;37.20;;;14.52;;
67193;SDS011;54121;53.508;49.422;2022-12-04T04:43:39;37.90;;;13.48;;
67193;SDS011;54121;53.508;49.422;2022-12-04T04:46:22;42.63;;;15.48;;
67193;SDS011;54121;53.508;49.422;2022-12-04T04:48:56;38.47;;;14.90;;
67193;SDS011;54121;53.508;49.422;2022-12-04T04:51:26;36.97;;;14.45;;
67193;SDS011;54121;53.508;49.422;2022-12-04T04:53:55;52.25;;;15.52;;
67193;SDS011;54121;53.508;49.422;2022-12-04T04:56:23;36.65;;;14.77;;
67193;SDS011;54121;53.508;49.422;2022-12-04T04:58:50;31.55;;;14.00;;
67193;SDS011;54121;53.508;49.422;2022-12-04T05:01:18;32.95;;;14.57;;
67193;SDS011;54121;53.508;49.422;2022-12-04T05:03:47;40.08;;;14.52;;
67193;SDS011;54121;53.508;49.422;2022-12-04T05:06:14;32.00;;;15.13;;
67193;SDS011;54121;53.508;49.422;2022-12-04T05:08:40;36.40;;;14.65;;
67193;SDS011;54121;53.508;49.422;2022-12-04T05:11:09;41.60;;;15.90;;
67193;SDS011;54121;53.508;49.422;2022-12-04T05:13:38;35.15;;;15.50;;
67193;SDS011;54121;53.508;49.422;2022-12-04T05:16:06;35.03;;;15.70;;
67193;SDS011;54121;53.508;49.422;2022-12-04T05:18:35;32.17;;;14.80;;
67193;SDS011;54121;53.508;49.422;2022-12-04T05:21:06;35.40;;;16.38;;
67193;SDS011;54121;53.508;49.422;2022-12-04T05:23:34;56.03;;;15.40;;
67193;SDS011;54121;53.508;49.422;2022-12-04T05:26:01;39.00;;;12.32;;
67193;SDS011;54121;53.508;49.422;2022-12-04T05:28:29;36.60;;;15.52;;
67193;SDS011;54121;53.508;49.422;2022-12-04T05:30:57;32.55;;;14.25;;
67193;SDS011;54121;53.508;49.422;2022-12-04T05:33:25;40.47;;;15.40;;
67193;SDS011;54121;53.508;49.422;2022-12-04T05:35:56;46.63;;;16.73;;
67193;SDS011;54121;53.508;49.422;2022-12-04T05:38:23;36.28;;;16.27;;
67193;SDS011;54121;53.508;49.422;2022-12-04T05:40:50;39.95;;;16.83;;
67193;SDS011;54121;53.508;49.422;2022-12-04T05:43:17;40.42;;;16.27;;
67193;SDS011;54121;53.508;49.422;2022-12-04T05:45:43;38.13;;;17.23;;
67193;SDS011;54121;53.508;49.422;2022-12-04T05:48:10;38.22;;;15.85;;
67193;SDS011;54121;53.508;49.422;2022-12-04T05:50:37;41.55;;;16.30;;
67193;SDS011;54121;53.508;49.422;2022-12-04T05:53:03;44.70;;;16.80;;
67193;SDS011;54121;53.508;49.422;2022-12-04T05:55:30;34.85;;;15.77;;
67193;SDS011;54121;53.508;49.422;2022-12-04T05:57:57;42.25;;;17.52;;
67193;SDS011;54121;53.508;49.422;2022-12-04T06:00:23;29.13;;;15.60;;
67193;SDS011;54121;53.508;49.422;2022-12-04T06:02:50;28.65;;;15.18;;
67193;SDS011;54121;53.508;49.422;2022-12-04T06:05:16;31.17;;;15.07;;
67193;SDS011;54121;53.508;49.422;2022-12-04T06:07:43;36.10;;;16.58;;
67193;SDS011;54121;53.508;49.422;2022-12-04T06:10:09;40.10;;;18.20;;
67193;SDS011;54121;53.508;49.422;2022-12-04T06:12:36;38.70;;;16.65;;
67193;SDS011;54121;53.508;49.422;2022-12-04T06:15:03;41.95;;;17.13;;
67193;SDS011;54121;53.508;49.422;2022-12-04T06:17:30;33.85;;;16.80;;
67193;SDS011;54121;53.508;49.422;2022-12-04T06:19:57;33.35;;;16.65;;
67193;SDS011;54121;53.508;49.422;2022-12-04T06:22:24;32.03;;;14.73;;
67193;SDS011;54121;53.508;49.422;2022-12-04T06:24:51;31.08;;;14.25;;
67193;SDS011;54121;53.508;49.422;2022-12-04T06:27:18;28.23;;;13.27;;
67193;SDS011;54121;53.508;49.422;2022-12-04T06:29:44;30.67;;;12.02;;
67193;SDS011;54121;53.508;49.422;2022-12-04T06:32:11;26.05;;;11.75;;
67193;SDS011;54121;53.508;49.422;2022-12-04T06:34:37;20.25;;;11.57;;
67193;SDS011;54121;53.508;49.422;2022-12-04T06:37:04;29.02;;;10.52;;
67193;SDS011;54121;53.508;49.422;2022-12-04T06:39:31;18.30;;;9.60;;
67193;SDS011;54121;53.508;49.422;2022-12-04T06:41:58;19.83;;;9.45;;
67193;SDS011;54121;53.508;49.422;2022-12-04T06:44:24;21.20;;;9.50;;
67193;SDS011;54121;53.508;49.422;2022-12-04T06:46:51;19.30;;;8.93;;
67193;SDS011;54121;53.508;49.422;2022-12-04T06:49:17;16.60;;;6.65;;
67193;SDS011;54121;53.508;49.422;2022-12-04T06:51:47;12.80;;;6.20;;
67193;SDS011;54121;53.508;49.422;2022-12-04T06:54:14;16.98;;;7.82;;
67193;SDS011;54121;53.508;49.422;2022-12-04T06:56:40;11.15;;;6.80;;
67193;SDS011;54121;53.508;49.422;2022-12-04T06:59:08;13.48;;;7.22;;
67193;SDS011;54121;53.508;49.422;2022-12-04T07:01:35;14.88;;;6.93;;
67193;SDS011;54121;53.508;49.422;2022-12-04T07:04:02;20.77;;;8.45;;
67193;SDS011;54121;53.508;49.422;2022-12-04T07:06:37;20.67;;;9.50;;
67193;SDS011;54121;53.508;49.422;2022-12-04T07:09:08;22.08;;;9.65;;
67193;SDS011;54121;53.508;49.422;2022-12-04T07:11:37;26.75;;;12.32;;
67193;SDS011;54121;53.508;49.422;2022-12-04T07:14:04;24.75;;;12.70;;
67193;SDS011;54121;53.508;49.422;2022-12-04T07:16:31;37.17;;;14.70;;
67193;SDS011;54121;53.508;49.422;2022-12-04T07:18:58;25.80;;;14.02;;
67193;SDS011;54121;53.508;49.422;2022-12-04T07:21:25;29.83;;;13.65;;
67193;SDS011;54121;53.508;49.422;2022-12-04T07:23:54;26.92;;;12.50;;
67193;SDS011;54121;53.508;49.422;2022-12-04T07:26:23;31.00;;;12.03;;
67193;SDS011;54121;53.508;49.422;2022-12-04T07:28:52;17.30;;;9.88;;
67193;SDS011;54121;53.508;49.422;2022-12-04T07:31:20;23.33;;;11.32;;
67193;SDS011;54121;53.508;49.422;2022-12-04T07:33:48;18.95;;;9.57;;
67193;SDS011;54121;53.508;49.422;2022-12-04T07:36:16;16.75;;;9.75;;
67193;SDS011;54121;53.508;49.422;2022-12-04T07:38:44;21.52;;;8.82;;
67193;SDS011;54121;53.508;49.422;2022-12-04T07:41:12;18.90;;;9.13;;
67193;SDS011;54121;53.508;49.422;2022-12-04T07:43:39;23.52;;;8.70;;
67193;SDS011;54121;53.508;49.422;2022-12-04T07:46:08;19.10;;;9.20;;
67193;SDS011;54121;53.508;49.422;2022-12-04T07:48:38;20.63;;;10.50;;
67193;SDS011;54121;53.508;49.422;2022-12-04T07:51:06;33.92;;;12.98;;
67193;SDS011;54121;53.508;49.422;2022-12-04T07:53:34;25.33;;;11.85;;
67193;SDS011;54121;53.508;49.422;2022-12-04T07:56:01;25.38;;;10.35;;
67193;SDS011;54121;53.508;49.422;2022-12-04T07:58:31;23.15;;;10.63;;
67193;SDS011;54121;53.508;49.422;2022-12-04T08:01:09;16.52;;;9.40;;
67193;SDS011;54121;53.508;49.422;2022-12-04T08:03:37;21.23;;;10.70;;
67193;SDS011;54121;53.508;49.422;2022-12-04T08:06:05;19.70;;;9.95;;
67193;SDS011;54121;53.508;49.422;2022-12-04T08:08:32;16.00;;;8.65;;
67193;SDS011;54121;53.508;49.422;2022-12-04T08:11:00;20.95;;;10.55;;
67193;SDS011;54121;53.508;49.422;2022-12-04T08:13:29;20.95;;;9.13;;
67193;SDS011;54121;53.508;49.422;2022-12-04T08:15:56;24.73;;;10.63;;
67193;SDS011;54121;53.508;49.422;2022-12-04T08:18:27;21.95;;;10.20;;
67193;SDS011;54121;53.508;49.422;2022-12-04T08:20:53;21.75;;;10.43;;
67193;SDS011;54121;53.508;49.422;2022-12-04T08:23:26;27.45;;;10.90;;
67193;SDS011;54121;53.508;49.422;2022-12-04T08:25:53;20.65;;;10.70;;
67193;SDS011;54121;53.508;49.422;2022-12-04T08:28:22;22.50;;;9.98;;
67193;SDS011;54121;53.508;49.422;2022-12-04T08:30:49;19.00;;;10.00;;
67193;SDS011;54121;53.508;49.422;2022-12-04T08:33:15;25.58;;;9.48;;
67193;SDS011;54121;53.508;49.422;2022-12-04T08:35:42;16.90;;;9.43;;
67193;SDS011;54121;53.508;49.422;2022-12-04T08:38:09;27.73;;;12.98;;
67193;SDS011;54121;53.508;49.422;2022-12-04T08:40:36;21.10;;;10.50;;
67193;SDS011;54121;53.508;49.422;2022-12-04T08:43:02;22.63;;;10.57;;
67193;SDS011;54121;53.508;49.422;2022-12-04T08:45:29;20.67;;;9.98;;
67193;SDS011;54121;53.508;49.422;2022-12-04T08:47:55;25.00;;;11.55;;
67193;SDS011;54121;53.508;49.422;2022-12-04T08:50:22;25.50;;;10.80;;
67193;SDS011;54121;53.508;49.422;2022-12-04T08:52:48;24.35;;;11.13;;
67193;SDS011;54121;53.508;49.422;2022-12-04T08:55:15;21.55;;;11.10;;
67193;SDS011;54121;53.508;49.422;2022-12-04T08:57:42;24.02;;;10.10;;
67193;SDS011;54121;53.508;49.422;2022-12-04T09:00:11;24.63;;;11.38;;
67193;SDS011;54121;53.508;49.422;2022-12-04T09:02:40;18.40;;;9.35;;
67193;SDS011;54121;53.508;49.422;2022-12-04T09:05:06;14.70;;;8.63;;
67193;SDS011;54121;53.508;49.422;2022-12-04T09:07:33;23.30;;;10.93;;
67193;SDS011;54121;53.508;49.422;2022-12-04T09:10:00;20.85;;;8.98;;
67193;SDS011;54121;53.508;49.422;2022-12-04T09:12:26;16.73;;;9.30;;
67193;SDS011;54121;53.508;49.422;2022-12-04T09:14:53;19.35;;;8.85;;
67193;SDS011;54121;53.508;49.422;2022-12-04T09:17:20;15.40;;;9.00;;
67193;SDS011;54121;53.508;49.422;2022-12-04T09:19:46;20.15;;;9.80;;
67193;SDS011;54121;53.508;49.422;2022-12-04T09:22:13;20.27;;;11.15;;
67193;SDS011;54121;53.508;49.422;2022-12-04T09:24:39;23.10;;;10.48;;
67193;SDS011;54121;53.508;49.422;2022-12-04T09:27:06;16.58;;;9.88;;
67193;SDS011;54121;53.508;49.422;2022-12-04T09:29:32;25.25;;;10.27;;
67193;SDS011;54121;53.508;49.422;2022-12-04T09:31:59;19.35;;;8.85;;
67193;SDS011;54121;53.508;49.422;2022-12-04T09:34:25;15.93;;;9.10;;
67193;SDS011;54121;53.508;49.422;2022-12-04T09:36:52;17.23;;;8.48;;
67193;SDS011;54121;53.508;49.422;2022-12-04T09:39:18;25.20;;;8.85;;
67193;SDS011;54121;53.508;49.422;2022-12-04T09:42:02;16.95;;;9.10;;
67193;SDS011;54121;53.508;49.422;2022-12-04T09:44:47;18.65;;;9.60;;
67193;SDS011;54121;53.508;49.422;2022-12-04T09:47:28;15.65;;;9.48;;
67193;SDS011;54121;53.508;49.422;2022-12-04T09:50:03;23.27;;;9.88;;
67193;SDS011;54121;53.508;49.422;2022-12-04T09:55:26;17.60;;;8.70;;
67193;SDS011;54121;53.508;49.422;2022-12-04T09:57:57;14.10;;;8.20;;
67193;SDS011;54121;53.508;49.422;2022-12-04T10:00:26;14.88;;;9.02;;
67193;SDS011;54121;53.508;49.422;2022-12-04T10:03:04;17.55;;;7.88;;
67193;SDS011;54121;53.508;49.422;2022-12-04T10:08:20;19.00;;;9.13;;
67193;SDS011;54121;53.508;49.422;2022-12-04T10:25:21;12.40;;;7.43;;
67193;SDS011;54121;53.508;49.422;2022-12-04T10:30:21;14.00;;;7.80;;
67193;SDS011;54121;53.508;49.422;2022-12-04T10:32:55;15.18;;;7.70;;
67193;SDS011;54121;53.508;49.422;2022-12-04T10:35:26;13.25;;;7.30;;
67193;SDS011;54121;53.508;49.422;2022-12-04T10:37:56;15.07;;;8.48;;
67193;SDS011;54121;53.508;49.422;2022-12-04T10:40:40;14.82;;;9.48;;
67193;SDS011;54121;53.508;49.422;2022-12-04T10:45:48;15.77;;;7.75;;
67193;SDS011;54121;53.508;49.422;2022-12-04T10:48:23;16.58;;;7.57;;
67193;SDS011;54121;53.508;49.422;2022-12-04T10:51:00;12.43;;;6.50;;
67193;SDS011;54121;53.508;49.422;2022-12-04T10:53:29;16.10;;;6.93;;
67193;SDS011;54121;53.508;49.422;2022-12-04T10:59:04;14.63;;;7.97;;
67193;SDS011;54121;53.508;49.422;2022-12-04T11:01:32;13.85;;;7.40;;
67193;SDS011;54121;53.508;49.422;2022-12-04T11:04:08;17.15;;;7.82;;
67193;SDS011;54121;53.508;49.422;2022-12-04T11:06:44;15.27;;;7.03;;
67193;SDS011;54121;53.508;49.422;2022-12-04T11:09:23;12.93;;;6.78;;
67193;SDS011;54121;53.508;49.422;2022-12-04T11:11:50;14.55;;;7.72;;
67193;SDS011;54121;53.508;49.422;2022-12-04T11:14:20;15.70;;;7.25;;
67193;SDS011;54121;53.508;49.422;2022-12-04T11:16:48;22.08;;;10.25;;
67193;SDS011;54121;53.508;49.422;2022-12-04T11:19:25;16.45;;;9.20;;
67193;SDS011;54121;53.508;49.422;2022-12-04T11:22:03;22.63;;;10.85;;
67193;SDS011;54121;53.508;49.422;2022-12-04T11:24:36;14.45;;;8.45;;
67193;SDS011;54121;53.508;49.422;2022-12-04T11:27:05;17.77;;;8.50;;
67193;SDS011;54121;53.508;49.422;2022-12-04T11:29:42;16.90;;;8.45;;
67193;SDS011;54121;53.508;49.422;2022-12-04T11:32:18;17.00;;;8.52;;
67193;SDS011;54121;53.508;49.422;2022-12-04T11:34:49;17.58;;;8.38;;
67193;SDS011;54121;53.508;49.422;2022-12-04T11:37:23;17.52;;;9.23;;
67193;SDS011;54121;53.508;49.422;2022-12-04T11:39:53;16.08;;;9.07;;
67193;SDS011;54121;53.508;49.422;2022-12-04T11:42:25;18.40;;;9.20;;
67193;SDS011;54121;53.508;49.422;2022-12-04T11:44:55;20.88;;;9.57;;
67193;SDS011;54121;53.508;49.422;2022-12-04T11:47:24;14.60;;;9.52;;
67193;SDS011;54121;53.508;49.422;2022-12-04T11:49:56;17.47;;;10.07;;
67193;SDS011;54121;53.508;49.422;2022-12-04T11:52:56;17.73;;;10.68;;
67193;SDS011;54121;53.508;49.422;2022-12-04T11:58:28;19.58;;;11.05;;
67193;SDS011;54121;53.508;49.422;2022-12-04T12:06:39;21.42;;;10.90;;
67193;SDS011;54121;53.508;49.422;2022-12-04T12:09:14;18.92;;;10.40;;
67193;SDS011;54121;53.508;49.422;2022-12-04T12:12:13;18.20;;;9.57;;
67193;SDS011;54121;53.508;49.422;2022-12-04T12:17:53;17.00;;;8.57;;
67193;SDS011;54121;53.508;49.422;2022-12-04T12:26:01;19.17;;;9.73;;
67193;SDS011;54121;53.508;49.422;2022-12-04T12:28:43;18.38;;;8.90;;
67193;SDS011;54121;53.508;49.422;2022-12-04T12:34:57;20.80;;;9.77;;
67193;SDS011;54121;53.508;49.422;2022-12-04T12:37:34;20.67;;;10.82;;
67193;SDS011;54121;53.508;49.422;2022-12-04T12:42:38;24.27;;;12.38;;
67193;SDS011;54121;53.508;49.422;2022-12-04T12:48:48;21.10;;;12.27;;
67193;SDS011;54121;53.508;49.422;2022-12-04T12:51:02;20.65;;;12.18;;
67193;SDS011;54121;53.508;49.422;2022-12-04T12:53:40;25.08;;;13.43;;
67193;SDS011;54121;53.508;49.422;2022-12-04T12:56:12;26.50;;;13.25;;
67193;SDS011;54121;53.508;49.422;2022-12-04T12:58:53;29.17;;;13.50;;
67193;SDS011;54121;53.508;49.422;2022-12-04T13:01:43;29.92;;;13.88;;
67193;SDS011;54121;53.508;49.422;2022-12-04T13:04:34;24.85;;;13.73;;
67193;SDS011;54121;53.508;49.422;2022-12-04T13:07:39;32.33;;;14.40;;
67193;SDS011;54121;53.508;49.422;2022-12-04T13:10:11;31.23;;;14.63;;
67193;SDS011;54121;53.508;49.422;2022-12-04T13:15:18;31.23;;;15.23;;
67193;SDS011;54121;53.508;49.422;2022-12-04T13:17:49;35.88;;;16.00;;
67193;SDS011;54121;53.508;49.422;2022-12-04T13:20:22;37.63;;;16.88;;
67193;SDS011;54121;53.508;49.422;2022-12-04T13:32:00;34.65;;;15.65;;
67193;SDS011;54121;53.508;49.422;2022-12-04T13:35:07;39.45;;;16.25;;
67193;SDS011;54121;53.508;49.422;2022-12-04T13:45:55;34.50;;;15.25;;
67193;SDS011;54121;53.508;49.422;2022-12-04T13:48:26;29.00;;;15.18;;
67193;SDS011;54121;53.508;49.422;2022-12-04T13:51:20;35.57;;;14.60;;
67193;SDS011;54121;53.508;49.422;2022-12-04T13:54:01;45.45;;;16.48;;
67193;SDS011;54121;53.508;49.422;2022-12-04T13:56:47;38.22;;;16.35;;
67193;SDS011;54121;53.508;49.422;2022-12-04T13:59:20;33.10;;;15.55;;
67193;SDS011;54121;53.508;49.422;2022-12-04T14:04:52;43.38;;;16.33;;
67193;SDS011;54121;53.508;49.422;2022-12-04T14:07:44;43.25;;;15.07;;
67193;SDS011;54121;53.508;49.422;2022-12-04T14:10:36;35.13;;;14.43;;
67193;SDS011;54121;53.508;49.422;2022-12-04T14:13:14;36.88;;;13.45;;
67193;SDS011;54121;53.508;49.422;2022-12-04T14:15:45;30.88;;;13.63;;
67193;SDS011;54121;53.508;49.422;2022-12-04T14:20:40;29.48;;;13.43;;
67193;SDS011;54121;53.508;49.422;2022-12-04T14:25:42;31.88;;;14.63;;
67193;SDS011;54121;53.508;49.422;2022-12-04T14:28:51;36.80;;;15.25;;
67193;SDS011;54121;53.508;49.422;2022-12-04T14:31:20;44.53;;;16.13;;
67193;SDS011;54121;53.508;49.422;2022-12-04T14:33:56;35.63;;;15.50;;
67193;SDS011;54121;53.508;49.422;2022-12-04T14:36:25;37.47;;;15.75;;
67193;SDS011;54121;53.508;49.422;2022-12-04T14:39:04;39.65;;;15.23;;
67193;SDS011;54121;53.508;49.422;2022-12-04T14:41:37;38.38;;;16.60;;
67193;SDS011;54121;53.508;49.422;2022-12-04T14:44:03;42.40;;;15.10;;
67193;SDS011;54121;53.508;49.422;2022-12-04T14:46:36;41.67;;;15.43;;
67193;SDS011;54121;53.508;49.422;2022-12-04T14:55:04;34.85;;;14.38;;
67193;SDS011;54121;53.508;49.422;2022-12-04T14:57:54;33.92;;;14.77;;
67193;SDS011;54121;53.508;49.422;2022-12-04T15:00:52;29.15;;;13.10;;
67193;SDS011;54121;53.508;49.422;2022-12-04T15:03:20;26.50;;;11.68;;
67193;SDS011;54121;53.508;49.422;2022-12-04T15:05:48;33.30;;;14.02;;
67193;SDS011;54121;53.508;49.422;2022-12-04T15:08:15;33.97;;;13.95;;
67193;SDS011;54121;53.508;49.422;2022-12-04T15:10:48;36.90;;;14.55;;
67193;SDS011;54121;53.508;49.422;2022-12-04T15:13:34;30.50;;;13.95;;
67193;SDS011;54121;53.508;49.422;2022-12-04T15:16:16;29.33;;;13.20;;
67193;SDS011;54121;53.508;49.422;2022-12-04T15:21:40;39.75;;;12.75;;
67193;SDS011;54121;53.508;49.422;2022-12-04T15:24:07;30.23;;;12.75;;
67193;SDS011;54121;53.508;49.422;2022-12-04T15:26:47;37.83;;;12.43;;
67193;SDS011;54121;53.508;49.422;2022-12-04T15:29:26;29.38;;;11.35;;
67193;SDS011;54121;53.508;49.422;2022-12-04T15:31:55;37.67;;;13.32;;
67193;SDS011;54121;53.508;49.422;2022-12-04T15:34:36;28.92;;;12.35;;
67193;SDS011;54121;53.508;49.422;2022-12-04T15:39:47;30.15;;;12.45;;
67193;SDS011;54121;53.508;49.422;2022-12-04T15:45:00;28.42;;;10.65;;
67193;SDS011;54121;53.508;49.422;2022-12-04T15:55:33;25.67;;;10.55;;
67193;SDS011;54121;53.508;49.422;2022-12-04T16:01:16;26.15;;;10.65;;
67193;SDS011;54121;53.508;49.422;2022-12-04T16:03:48;34.63;;;14.18;;
67193;SDS011;54121;53.508;49.422;2022-12-04T16:06:18;38.45;;;15.77;;
67193;SDS011;54121;53.508;49.422;2022-12-04T16:08:56;41.70;;;14.90;;
67193;SDS011;54121;53.508;49.422;2022-12-04T16:11:31;30.75;;;13.85;;
67193;SDS011;54121;53.508;49.422;2022-12-04T16:14:01;34.95;;;13.57;;
67193;SDS011;54121;53.508;49.422;2022-12-04T16:16:38;41.90;;;13.48;;
67193;SDS011;54121;53.508;49.422;2022-12-04T16:21:50;28.15;;;12.23;;
67193;SDS011;54121;53.508;49.422;2022-12-04T16:24:17;35.15;;;14.35;;
67193;SDS011;54121;53.508;49.422;2022-12-04T16:26:43;28.52;;;13.20;;
67193;SDS011;54121;53.508;49.422;2022-12-04T16:29:10;32.70;;;14.65;;
67193;SDS011;54121;53.508;49.422;2022-12-04T16:31:37;32.30;;;13.55;;
67193;SDS011;54121;53.508;49.422;2022-12-04T16:34:03;35.15;;;12.57;;
67193;SDS011;54121;53.508;49.422;2022-12-04T16:36:30;31.60;;;12.57;;
67193;SDS011;54121;53.508;49.422;2022-12-04T16:38:56;26.27;;;11.13;;
67193;SDS011;54121;53.508;49.422;2022-12-04T16:41:23;32.65;;;12.35;;
67193;SDS011;54121;53.508;49.422;2022-12-04T16:43:54;34.78;;;12.82;;
67193;SDS011;54121;53.508;49.422;2022-12-04T16:46:22;26.15;;;11.57;;
67193;SDS011;54121;53.508;49.422;2022-12-04T16:48:50;29.77;;;12.13;;
67193;SDS011;54121;53.508;49.422;2022-12-04T16:51:19;27.98;;;12.13;;
67193;SDS011;54121;53.508;49.422;2022-12-04T16:53:48;35.15;;;16.25;;
67193;SDS011;54121;53.508;49.422;2022-12-04T16:56:16;36.58;;;12.02;;
67193;SDS011;54121;53.508;49.422;2022-12-04T16:58:43;32.50;;;13.50;;
67193;SDS011;54121;53.508;49.422;2022-12-04T17:01:32;24.15;;;10.95;;
67193;SDS011;54121;53.508;49.422;2022-12-04T17:04:08;31.13;;;11.77;;
67193;SDS011;54121;53.508;49.422;2022-12-04T17:06:34;26.65;;;10.43;;
67193;SDS011;54121;53.508;49.422;2022-12-04T17:09:01;25.50;;;10.40;;
67193;SDS011;54121;53.508;49.422;2022-12-04T17:11:28;22.25;;;10.23;;
67193;SDS011;54121;53.508;49.422;2022-12-04T17:13:54;23.45;;;10.73;;
67193;SDS011;54121;53.508;49.422;2022-12-04T17:16:21;24.48;;;10.60;;
67193;SDS011;54121;53.508;49.422;2022-12-04T17:18:49;24.58;;;10.82;;